Flight ASX205X

  • Submitted By: Lukasz Przybylak
  • Departure Airport: Gdansk im. Lecha Walesy (EPGD)
  • Arrival Airport: Katowice Pyrzowice (EPKT)
  • Aircraft: KING AIR 350 (SP-DBL)
  • Flight Time: 01.50.03
  • Date Submitted: 09/08/2017
  • Route: IRLUN N133 NEGUV M66 KUKAM
  • Status: Accepted
Flight Details
Gross Revenue:
(8 load / € 80.00 per unit
€ 640.00
Fuel Cost:
(337.473 fuel used @ 0.45 / unit)
€ 151.86

Additional Log Information:

View Log

[16:53] - CARENADO B350i King Air 5003
[16:53] - Flight ASX205X is ready to depart EPGD with a final destination of EPKT.
[16:53] - Boarding
[16:54] - Engine 1 Started
[16:55] - Engine 2 Started
[16:59] - Navigation Lights ON 3AGL
[16:59] - Beacon Light ON 3AGL
[16:59] - Taxi Lights ON 3AGL
[17:00] - Parking Brake Released
[17:00] - Pushing Back from the gate
[17:00] - Parking Brake Applied
[17:02] - Parking Brake Released
[17:03] - Parking Brake Applied
[17:03] - Parking Brake Released
[17:04] - Taxiing to Runway
[17:05] - Parking Brake Applied
[17:05] - Landing Lights ON 3AGL
[17:05] - Taxi Lights OFF 3AGL
[17:05] - Strobe Lights ON 3AGL
[17:07] - Parking Brake Released
[17:08] - Flaps to position 1
[17:08] - Taking Off with 8 passengers on board
[17:08] - Take off at 115kts, with a pitch of 6deg and 1794lbs of fuel on board
[17:08] - Wind Heading 217 | Wind Speed 10kts | Temperature 16 deg C
[17:08] - METAR Departure: EPGD 081430Z 20011KT 9999 FEW017 BKN025 15/12 Q1005

[17:08] - Climbing to TOC
[17:08] - Flaps to position 0 at 1020ft and 141kts
[17:09] - Gear up at 1302AGL
[17:09] - AutoPilot Engaged at 1477AGL
[17:13] - Landing Lights OFF 7569AGL
[17:26] - TOC reached
[17:26] - Cruise started
[17:33] - COM1 - 134.92
[17:56] - COM1 - 134.92
[17:57] - COM1 - 134.92
[17:59] - Transponder - 4563
[17:59] - Transponder - 4563
[18:00] - COM1 - 134.92
[18:06] - TOD reached
[18:06] - Descending to destination
[18:13] - Landing Shortly
[18:27] - Flaps to position 1 at 3812ft and 191kts
[18:27] - Gear down at 2473AGL
[18:28] - AutoPilot Disengaged at 1627AGL
[18:30] - Landed at -239fpm. With 1112lbs of fuel onboard and a pitch angle of 3deg.
[18:30] - Wind Heading 219 | Wind Speed 15kts | Temperature 19 deg C
[18:30] - METAR Arrival: EPKT 081600Z 20011KT CAVOK 19/08 Q1011

[18:31] - Taxiing to Gate
[18:31] - Parking Brake Applied
[18:31] - Arrived safely at EPKT. We hope you enjoyed your flight!
[18:32] - Landing Lights ON 6AGL
[18:33] - Taxi Lights ON 6AGL
[18:33] - Landing Lights OFF 6AGL
[18:33] - Strobe Lights OFF 6AGL
[18:33] - Parking Brake Released
[18:33] - Taxiing to Gate
[18:36] - Parking Brake Applied
[18:36] - Arrived safely at EPKT. We hope you enjoyed your flight!
[18:42] - Taxi Lights OFF 6AGL
[18:42] - Engine 1 Stopped
[18:42] - Engine 2 Stopped
[18:43] - CARENADO B350i King Air 5003
[18:43] - MaxSim Rate: 1x
[18:43] - SiouxAcars ver: 1.0.1.2

Route Map